Time;durP1;ratioP1;P1;durP2;ratioP2;P2;SDS_P1;SDS_P2;PMS_P1;PMS_P2;Temp;Humidity;BMP_temperature;BMP_pressure;BME280_temperature;BME280_humidity;BME280_pressure;Samples;Min_cycle;Max_cycle;Signal;HPM_P1;HPM_P2
2022/01/21 00:00:52;;;;;;;0.20;0.10;;;;;;;3.67;97.19;101725.91;4992620;28;20457;-50
2022/01/21 00:03:19;;;;;;;0.20;0.10;;;;;;;3.61;97.43;101724.88;4993403;28;20477;-50
2022/01/21 00:05:46;;;;;;;0.20;0.10;;;;;;;3.58;97.96;101730.09;4996284;28;21017;-50
2022/01/21 00:08:12;;;;;;;0.20;0.10;;;;;;;3.46;97.88;101725.44;4996374;28;20503;-50
2022/01/21 00:10:39;;;;;;;0.20;0.10;;;;;;;3.52;98.92;101723.81;4983703;28;20481;-50
2022/01/21 00:13:15;;;;;;;0.20;0.10;;;;;;;3.33;99.74;101723.34;4995574;28;20994;-50
2022/01/21 00:15:42;;;;;;;0.20;0.10;;;;;;;3.35;100.00;101719.03;4994978;28;20823;-51
2022/01/21 00:18:10;;;;;;;0.20;0.10;;;;;;;3.33;99.28;101721.63;4984600;28;20555;-50
2022/01/21 00:31:37;;;;;;;0.20;0.10;;;;;;;3.34;98.64;101733.00;4995773;28;20449;-50
2022/01/21 00:34:04;;;;;;;0.30;0.30;;;;;;;3.60;95.66;101726.63;4995299;28;20477;-51
2022/01/21 00:36:32;;;;;;;0.20;0.10;;;;;;;3.59;95.05;101729.22;4995927;28;20551;-50
2022/01/21 00:38:59;;;;;;;0.20;0.10;;;;;;;3.86;94.02;101736.00;4990309;28;20874;-50
2022/01/21 00:41:30;;;;;;;0.20;0.10;;;;;;;3.92;93.91;101734.34;4988399;28;20851;-50
2022/01/21 00:43:57;;;;;;;0.20;0.10;;;;;;;3.83;94.51;101730.66;4995572;28;20469;-50
2022/01/21 00:46:24;;;;;;;0.20;0.10;;;;;;;3.92;94.52;101729.97;4995330;28;21004;-50
2022/01/21 00:48:50;;;;;;;0.20;0.10;;;;;;;3.82;95.13;101742.03;4995756;28;20488;-50
2022/01/21 00:51:17;;;;;;;0.20;0.10;;;;;;;3.74;95.17;101748.88;4995570;28;20449;-51
2022/01/21 00:53:44;;;;;;;0.20;0.10;;;;;;;3.83;93.76;101754.31;4995365;28;20469;-50
2022/01/21 00:56:10;;;;;;;0.20;0.10;;;;;;;3.61;94.80;101753.81;4995247;28;20449;-50
2022/01/21 00:58:37;;;;;;;0.20;0.10;;;;;;;3.53;94.99;101756.25;4995394;28;20520;-51
2022/01/21 01:01:04;;;;;;;0.20;0.10;;;;;;;3.74;93.67;101753.25;4995205;28;20458;-50
2022/01/21 01:03:31;;;;;;;0.20;0.10;;;;;;;3.72;93.10;101763.72;4995260;28;20991;-50
2022/01/21 01:05:58;;;;;;;0.20;0.10;;;;;;;3.43;94.51;101763.03;4995152;28;20476;-50
2022/01/21 01:08:24;;;;;;;0.20;0.10;;;;;;;3.60;94.13;101773.94;4995219;28;20519;-51
2022/01/21 01:21:35;;;;;;;0.20;0.10;;;;;;;3.58;94.13;101782.66;4994876;28;20457;-50
2022/01/21 01:29:13;;;;;;;0.20;0.10;;;;;;;3.51;94.92;101776.34;4994671;28;20457;-51
2022/01/21 01:31:40;;;;;;;0.20;0.10;;;;;;;3.46;94.86;101778.00;4994632;28;20787;-49
2022/01/21 01:34:07;;;;;;;0.30;0.20;;;;;;;3.57;94.30;101776.53;4994514;28;21017;-50
2022/01/21 01:36:34;;;;;;;0.20;0.10;;;;;;;3.31;95.50;101781.13;4994454;28;20454;-50
2022/01/21 01:39:29;;;;;;;0.20;0.10;;;;;;;3.46;95.01;101767.47;4988451;28;20451;-50
2022/01/21 01:42:13;;;;;;;0.23;0.17;;;;;;;3.25;97.04;101773.97;4989763;28;21009;-50
2022/01/21 01:50:35;;;;;;;0.20;0.10;;;;;;;2.89;98.15;101758.16;4994371;28;20445;-50
2022/01/21 01:53:03;;;;;;;0.20;0.10;;;;;;;2.96;97.61;101753.94;4994247;28;20474;-50
2022/01/21 01:55:30;;;;;;;0.20;0.10;;;;;;;2.64;98.96;101755.72;4994420;28;20450;-51
2022/01/21 01:57:57;;;;;;;0.20;0.10;;;;;;;2.61;98.91;101746.06;4994311;28;20493;-50
2022/01/21 02:00:24;;;;;;;0.20;0.20;;;;;;;2.33;100.00;101760.13;4994205;28;20500;-50
2022/01/21 02:02:51;;;;;;;0.33;0.33;;;;;;;2.15;99.60;101764.81;4993934;28;20477;-50
2022/01/21 02:05:18;;;;;;;0.20;0.10;;;;;;;2.06;100.00;101767.19;4993980;28;20485;-50
2022/01/21 02:07:45;;;;;;;0.20;0.10;;;;;;;1.88;100.00;101778.00;4993855;28;20450;-50
2022/01/21 02:10:12;;;;;;;0.20;0.10;;;;;;;1.91;100.00;101782.44;4984670;28;20462;-50
2022/01/21 02:12:40;;;;;;;0.20;0.10;;;;;;;2.10;100.00;101782.16;4990407;28;20477;-50
2022/01/21 02:15:09;;;;;;;0.20;0.10;;;;;;;1.94;100.00;101795.66;4994562;28;20448;-51
2022/01/21 02:22:53;;;;;;;0.20;0.10;;;;;;;1.76;100.00;101783.75;4984400;28;20474;-50
2022/01/21 02:25:20;;;;;;;0.30;0.10;;;;;;;1.52;100.00;101769.00;4988055;28;20453;-50
2022/01/21 02:27:56;;;;;;;0.20;0.10;;;;;;;1.48;100.00;101781.97;4993488;28;20450;-50
2022/01/21 02:30:24;;;;;;;0.20;0.10;;;;;;;1.27;100.00;101772.56;4993740;28;21000;-50
2022/01/21 02:32:55;;;;;;;0.20;0.10;;;;;;;1.08;100.00;101774.53;4993352;28;20481;-50
2022/01/21 02:35:24;;;;;;;0.20;0.10;;;;;;;1.08;100.00;101779.78;4993694;28;20450;-50
2022/01/21 02:37:51;;;;;;;0.20;0.20;;;;;;;0.91;100.00;101782.66;4993637;28;20489;-50
2022/01/21 02:40:18;;;;;;;0.20;0.10;;;;;;;0.83;100.00;101782.41;4980709;28;20449;-50
2022/01/21 02:42:45;;;;;;;0.20;0.10;;;;;;;0.63;100.00;101784.31;4993667;28;20536;-50
2022/01/21 02:45:14;;;;;;;0.20;0.10;;;;;;;0.64;100.00;101787.81;4993234;28;20453;-50
2022/01/21 02:47:45;;;;;;;0.20;0.10;;;;;;;0.65;100.00;101790.47;4993580;28;20460;-50
2022/01/21 02:50:13;;;;;;;0.20;0.10;;;;;;;0.54;100.00;101779.63;4992240;28;20450;-49
2022/01/21 02:52:53;;;;;;;0.20;0.10;;;;;;;0.38;100.00;101779.91;4993302;28;20519;-49
2022/01/21 02:55:20;;;;;;;0.20;0.10;;;;;;;0.43;100.00;101782.72;4993448;28;20515;-49
2022/01/21 02:57:47;;;;;;;0.20;0.10;;;;;;;0.45;100.00;101781.03;4993135;28;20492;-50
2022/01/21 03:00:14;;;;;;;0.20;0.10;;;;;;;0.37;100.00;101779.84;4993369;28;20453;-50
2022/01/21 03:02:40;;;;;;;0.20;0.10;;;;;;;0.27;100.00;101789.06;4993039;28;20485;-49
2022/01/21 03:05:13;;;;;;;0.20;0.20;;;;;;;0.24;100.00;101783.75;4993232;28;20449;-49
2022/01/21 03:07:40;;;;;;;0.20;0.10;;;;;;;0.16;100.00;101793.03;4993502;28;20472;-49
2022/01/21 03:10:07;;;;;;;0.20;0.10;;;;;;;0.25;100.00;101794.25;4984577;28;20505;-50
2022/01/21 03:12:34;;;;;;;0.20;0.10;;;;;;;0.16;100.00;101812.22;4988768;28;20877;-49
2022/01/21 03:15:00;;;;;;;0.20;0.10;;;;;;;0.08;100.00;101797.06;4993352;28;20512;-50
2022/01/21 03:17:27;;;;;;;0.20;0.10;;;;;;;0.04;100.00;101797.78;4980158;28;20545;-50
2022/01/21 03:19:53;;;;;;;0.20;0.10;;;;;;;-0.09;100.00;101799.94;4993280;28;20942;-49
2022/01/21 03:22:20;;;;;;;0.20;0.10;;;;;;;-0.17;100.00;101801.34;4990448;28;20516;-49
2022/01/21 03:24:47;;;;;;;0.20;0.10;;;;;;;-0.09;100.00;101799.03;4965412;28;20457;-49
2022/01/21 03:27:13;;;;;;;0.20;0.10;;;;;;;-0.17;100.00;101806.56;4992891;28;20508;-51
2022/01/21 03:29:40;;;;;;;0.20;0.10;;;;;;;-0.05;100.00;101799.22;4975899;28;20460;-49
2022/01/21 03:32:07;;;;;;;0.20;0.10;;;;;;;0.04;100.00;101798.69;4993135;28;20469;-50
2022/01/21 03:34:34;;;;;;;0.20;0.10;;;;;;;0.03;100.00;101804.75;4993060;28;20462;-50
2022/01/21 03:37:01;;;;;;;0.20;0.10;;;;;;;-0.02;100.00;101815.00;4992966;28;20806;-50
2022/01/21 03:39:27;;;;;;;0.40;0.40;;;;;;;-0.01;100.00;101824.63;4985528;28;20513;-50
2022/01/21 03:41:54;;;;;;;0.20;0.10;;;;;;;0.13;100.00;101813.81;4993663;28;20464;-50
2022/01/21 03:44:21;;;;;;;0.20;0.10;;;;;;;0.03;100.00;101815.22;4996955;28;20527;-50
2022/01/21 03:46:48;;;;;;;0.20;0.10;;;;;;;0.08;100.00;101829.34;4996725;28;20861;-50
2022/01/21 03:49:15;;;;;;;0.20;0.10;;;;;;;-0.13;100.00;101823.28;4996634;28;20476;-49
2022/01/21 03:51:42;;;;;;;0.20;0.10;;;;;;;-0.10;100.00;101833.84;4996457;28;20875;-51
2022/01/21 03:54:09;;;;;;;0.20;0.10;;;;;;;-0.15;100.00;101822.31;4996319;28;20528;-49
2022/01/21 03:56:37;;;;;;;0.20;0.10;;;;;;;-0.34;100.00;101821.59;4996747;28;20453;-50
2022/01/21 03:59:03;;;;;;;0.20;0.10;;;;;;;-0.28;100.00;101818.31;4996512;28;20560;-50
2022/01/21 04:01:30;;;;;;;0.20;0.10;;;;;;;-0.28;100.00;101828.75;4979224;28;20449;-50
2022/01/21 04:03:58;;;;;;;0.20;0.10;;;;;;;-0.05;100.00;101821.84;4996390;28;20852;-50
2022/01/21 04:06:24;;;;;;;0.20;0.10;;;;;;;-0.22;100.00;101825.53;4996276;28;21016;-50
2022/01/21 04:08:51;;;;;;;0.20;0.10;;;;;;;-0.22;100.00;101825.53;4996482;28;20450;-50
2022/01/21 04:11:18;;;;;;;0.20;0.10;;;;;;;0.01;100.00;101824.72;4982912;28;20453;-51
2022/01/21 04:13:46;;;;;;;0.20;0.10;;;;;;;0.12;100.00;101828.59;4996454;28;20512;-50
2022/01/21 04:16:12;;;;;;;0.20;0.10;;;;;;;0.10;100.00;101826.78;4990851;28;20882;-50
2022/01/21 04:18:39;;;;;;;0.20;0.10;;;;;;;-0.06;100.00;101822.69;4988472;28;20547;-49
2022/01/21 04:21:06;;;;;;;0.20;0.10;;;;;;;-0.19;100.00;101817.78;4995734;28;20453;-50
2022/01/21 04:23:33;;;;;;;0.20;0.10;;;;;;;-0.19;100.00;101821.31;4983798;28;20529;-50
2022/01/21 04:25:59;;;;;;;0.20;0.10;;;;;;;-0.32;100.00;101814.69;4995453;28;20889;-50
2022/01/21 04:28:26;;;;;;;0.20;0.10;;;;;;;-0.32;100.00;101830.38;4996015;28;20445;-50
2022/01/21 04:30:52;;;;;;;0.20;0.10;;;;;;;-0.43;100.00;101831.66;4995698;28;20959;-50
2022/01/21 04:33:19;;;;;;;0.20;0.10;;;;;;;-0.28;100.00;101833.09;4996274;28;20489;-50
2022/01/21 04:35:46;;;;;;;0.20;0.10;;;;;;;-0.28;100.00;101839.22;4995458;28;21013;-50
2022/01/21 04:38:15;;;;;;;0.20;0.10;;;;;;;-0.22;100.00;101835.97;4995723;28;20497;-50
2022/01/21 04:40:52;;;;;;;0.20;0.10;;;;;;;-0.35;100.00;101845.94;4983300;28;20457;-50
2022/01/21 04:48:50;;;;;;;0.20;0.10;;;;;;;-0.19;100.00;101857.88;4976138;28;20446;-50
2022/01/21 04:51:20;;;;;;;0.20;0.10;;;;;;;-0.03;100.00;101862.88;4989472;28;20480;-50
2022/01/21 04:53:48;;;;;;;0.20;0.10;;;;;;;-0.06;100.00;101856.66;4995435;28;20524;-50
2022/01/21 04:56:15;;;;;;;0.20;0.10;;;;;;;-0.02;100.00;101862.03;4995339;28;20457;-50
2022/01/21 04:58:43;;;;;;;0.20;0.10;;;;;;;0.03;100.00;101862.25;4995146;28;20489;-50
2022/01/21 05:01:11;;;;;;;0.20;0.10;;;;;;;0.04;100.00;101865.75;4995421;28;20454;-50
2022/01/21 05:03:40;;;;;;;0.20;0.10;;;;;;;0.09;100.00;101867.69;4995137;28;20896;-50
2022/01/21 05:06:07;;;;;;;0.20;0.10;;;;;;;0.06;100.00;101864.97;4995064;28;20489;-50
2022/01/21 05:08:47;;;;;;;0.20;0.10;;;;;;;0.04;100.00;101857.91;4977962;28;20477;-51
2022/01/21 05:11:16;;;;;;;0.20;0.10;;;;;;;0.13;100.00;101853.91;4982058;28;20445;-51
2022/01/21 05:13:54;;;;;;;0.20;0.10;;;;;;;0.20;100.00;101863.78;4995232;28;20469;-50
2022/01/21 05:18:56;;;;;;;0.20;0.10;;;;;;;0.35;100.00;101863.50;4989186;28;20840;-50
2022/01/21 05:21:23;;;;;;;0.20;0.10;;;;;;;0.43;100.00;101867.31;4994893;28;20461;-50
2022/01/21 05:23:49;;;;;;;0.20;0.10;;;;;;;0.69;100.00;101868.28;4981434;28;20482;-50
2022/01/21 05:26:17;;;;;;;0.20;0.10;;;;;;;0.76;100.00;101865.03;4977887;28;20540;-51
2022/01/21 05:28:43;;;;;;;0.20;0.20;;;;;;;1.19;100.00;101867.44;4977393;28;20947;-50
2022/01/21 05:31:10;;;;;;;0.20;0.10;;;;;;;0.85;100.00;101873.22;4994864;28;20481;-51
2022/01/21 05:33:37;;;;;;;0.20;0.10;;;;;;;0.81;100.00;101867.81;4994409;28;20486;-50
2022/01/21 05:36:04;;;;;;;0.20;0.10;;;;;;;0.71;100.00;101871.84;4994418;28;20449;-50
2022/01/21 05:38:30;;;;;;;0.20;0.10;;;;;;;0.74;100.00;101873.66;4992757;28;20521;-50
2022/01/21 05:40:57;;;;;;;0.20;0.10;;;;;;;0.75;100.00;101857.13;4984134;28;20454;-51
2022/01/21 05:43:23;;;;;;;0.20;0.10;;;;;;;0.75;100.00;101857.13;4994674;28;20531;-50
2022/01/21 05:48:35;;;;;;;0.20;0.10;;;;;;;0.66;100.00;101857.66;4994324;28;20496;-51
2022/01/21 05:51:03;;;;;;;0.30;0.20;;;;;;;0.53;100.00;101868.50;4994432;28;20449;-50
2022/01/21 05:53:29;;;;;;;0.20;0.10;;;;;;;0.43;100.00;101861.19;4994456;28;20466;-50
2022/01/21 05:56:01;;;;;;;0.20;0.10;;;;;;;0.45;100.00;101859.50;4977615;28;20950;-51
2022/01/21 05:58:27;;;;;;;0.20;0.10;;;;;;;0.46;100.00;101864.78;4994370;28;20901;-50
2022/01/21 06:00:54;;;;;;;0.20;0.10;;;;;;;0.54;100.00;101863.34;4993791;28;20457;-51
2022/01/21 06:03:21;;;;;;;0.20;0.10;;;;;;;0.59;100.00;101866.16;4994300;28;20527;-51
2022/01/21 06:05:50;;;;;;;0.20;0.10;;;;;;;0.67;100.00;101876.88;4994141;28;20957;-50
2022/01/21 06:08:17;;;;;;;0.30;0.20;;;;;;;1.11;100.00;101873.28;4976358;28;20467;-50
2022/01/21 06:10:44;;;;;;;0.20;0.10;;;;;;;0.76;100.00;101883.34;4980985;28;20454;-50
2022/01/21 06:13:15;;;;;;;0.20;0.10;;;;;;;0.79;100.00;101870.38;4994090;28;20465;-50
2022/01/21 06:15:42;;;;;;;0.20;0.10;;;;;;;0.70;100.00;101880.53;4992760;28;20507;-51
2022/01/21 06:18:09;;;;;;;0.20;0.10;;;;;;;0.63;100.00;101877.59;4982314;28;20493;-51
2022/01/21 06:20:35;;;;;;;0.20;0.10;;;;;;;0.70;100.00;101880.53;4993955;28;20520;-50
2022/01/21 06:23:02;;;;;;;0.20;0.10;;;;;;;0.77;100.00;101885.13;4985907;28;20513;-50
2022/01/21 06:25:29;;;;;;;0.20;0.10;;;;;;;0.68;100.00;101887.41;4989081;28;20450;-50
2022/01/21 06:27:55;;;;;;;0.33;0.30;;;;;;;0.72;100.00;101881.47;4993929;28;20445;-50
2022/01/21 06:30:22;;;;;;;0.20;0.10;;;;;;;0.81;100.00;101892.25;4993513;28;20989;-50
2022/01/21 06:32:49;;;;;;;0.20;0.10;;;;;;;0.89;100.00;101895.16;4993643;28;20489;-50
2022/01/21 06:35:16;;;;;;;0.20;0.10;;;;;;;0.88;100.00;101888.16;4993745;28;20993;-50
2022/01/21 06:37:43;;;;;;;0.20;0.10;;;;;;;0.76;100.00;101890.31;4993617;28;20449;-50
2022/01/21 06:40:10;;;;;;;0.20;0.10;;;;;;;0.81;100.00;101883.50;4980470;28;20455;-50
2022/01/21 06:42:37;;;;;;;0.20;0.10;;;;;;;0.93;100.00;101881.34;4993756;28;20532;-50
2022/01/21 06:45:05;;;;;;;0.20;0.10;;;;;;;0.99;100.00;101884.19;4993844;28;20459;-50
2022/01/21 06:47:32;;;;;;;0.30;0.10;;;;;;;0.98;100.00;101889.38;4993788;28;20967;-51
2022/01/21 06:49:59;;;;;;;0.20;0.10;;;;;;;0.88;100.00;101896.88;4993580;28;20449;-50
2022/01/21 06:52:30;;;;;;;0.20;0.10;;;;;;;0.81;100.00;101894.88;4993550;28;20457;-51
2022/01/21 06:54:57;;;;;;;0.20;0.10;;;;;;;0.93;100.00;101907.50;4993215;28;20487;-50
2022/01/21 06:57:25;;;;;;;0.20;0.13;;;;;;;0.97;100.00;101908.53;4976380;28;20870;-51
2022/01/21 06:59:52;;;;;;;0.20;0.10;;;;;;;1.15;100.00;101906.56;4993397;28;20493;-50
2022/01/21 07:02:19;;;;;;;0.20;0.10;;;;;;;1.06;100.00;101911.47;4995629;28;20457;-51
2022/01/21 07:04:48;;;;;;;0.37;0.37;;;;;;;1.16;100.00;101918.84;4994915;28;21008;-50
2022/01/21 07:07:19;;;;;;;0.20;0.10;;;;;;;1.34;100.00;101927.31;4993343;28;20496;-50
2022/01/21 07:09:46;;;;;;;0.20;0.10;;;;;;;1.54;100.00;101927.16;4988260;28;20450;-50
2022/01/21 07:12:13;;;;;;;0.20;0.10;;;;;;;1.57;100.00;101924.63;4985805;28;20450;-50
2022/01/21 07:14:40;;;;;;;0.20;0.10;;;;;;;1.57;100.00;101924.63;4996833;28;20445;-51
2022/01/21 07:17:06;;;;;;;0.20;0.10;;;;;;;1.62;100.00;101916.06;4985049;28;20485;-50
2022/01/21 07:19:33;;;;;;;0.20;0.10;;;;;;;1.70;100.00;101918.97;4996673;28;20492;-50
2022/01/21 07:22:00;;;;;;;0.20;0.10;;;;;;;1.89;100.00;101909.97;4997233;28;20461;-50
2022/01/21 07:24:27;;;;;;;0.20;0.10;;;;;;;1.92;100.00;101910.97;4984164;28;21061;-51
2022/01/21 07:26:53;;;;;;;0.20;0.10;;;;;;;1.96;100.00;101901.47;4997312;28;20445;-51
2022/01/21 07:29:20;;;;;;;0.20;0.10;;;;;;;1.96;100.00;101910.22;4997167;28;20453;-50
2022/01/21 07:31:51;;;;;;;0.20;0.10;;;;;;;1.95;100.00;101910.19;4997074;28;20449;-50
2022/01/21 07:34:17;;;;;;;0.20;0.10;;;;;;;1.89;100.00;101910.84;4996886;28;20539;-51
2022/01/21 07:36:46;;;;;;;0.20;0.10;;;;;;;2.07;100.00;101915.84;4996929;28;21009;-51
2022/01/21 07:39:13;;;;;;;0.20;0.10;;;;;;;2.21;100.00;101924.13;4989021;28;20486;-51
2022/01/21 07:41:40;;;;;;;0.20;0.10;;;;;;;2.19;100.00;101924.06;4991813;28;20453;-51
2022/01/21 07:44:06;;;;;;;0.20;0.10;;;;;;;2.46;100.00;101921.41;4996820;28;20477;-50
2022/01/21 07:46:33;;;;;;;0.63;0.63;;;;;;;2.41;100.00;101930.88;4996603;28;20511;-51
2022/01/21 07:49:01;;;;;;;0.20;0.10;;;;;;;2.45;100.00;101927.50;4996707;28;20946;-51
2022/01/21 07:51:27;;;;;;;0.20;0.10;;;;;;;2.37;100.00;101926.41;4996306;28;20449;-51
2022/01/21 07:53:54;;;;;;;0.20;0.10;;;;;;;2.55;100.00;101926.06;4996802;28;20508;-50
2022/01/21 07:56:21;;;;;;;0.20;0.10;;;;;;;2.57;100.00;101933.13;4996835;28;20457;-51
2022/01/21 07:58:47;;;;;;;0.20;0.10;;;;;;;2.55;100.00;101940.06;4996568;28;21056;-51
2022/01/21 08:01:14;;;;;;;0.20;0.20;;;;;;;2.58;100.00;101937.53;4997144;28;20453;-51
2022/01/21 08:03:41;;;;;;;0.20;0.10;;;;;;;2.67;100.00;101942.19;4996919;28;20539;-51
2022/01/21 08:06:07;;;;;;;0.20;0.10;;;;;;;2.80;100.00;101944.34;4996488;28;20493;-51
2022/01/21 08:08:35;;;;;;;0.20;0.10;;;;;;;2.96;100.00;101936.06;4996306;28;21012;-50
2022/01/21 08:11:02;;;;;;;0.20;0.10;;;;;;;2.81;100.00;101950.47;4983562;28;20481;-51
2022/01/21 08:13:28;;;;;;;0.20;0.10;;;;;;;2.83;100.00;101940.91;4996456;28;20469;-51
2022/01/21 08:15:56;;;;;;;0.20;0.10;;;;;;;3.02;100.00;101942.34;4993663;28;20458;-50
2022/01/21 08:18:23;;;;;;;0.20;0.10;;;;;;;3.00;100.00;101947.53;4984991;28;20461;-51
2022/01/21 08:20:49;;;;;;;0.20;0.17;;;;;;;3.03;100.00;101947.66;4996209;28;20453;-51
2022/01/21 08:23:16;;;;;;;0.50;0.50;;;;;;;3.19;100.00;101941.09;4986628;28;20477;-50
2022/01/21 08:25:43;;;;;;;0.20;0.10;;;;;;;3.20;100.00;101946.38;4992369;28;20453;-51
2022/01/21 08:28:10;;;;;;;0.20;0.10;;;;;;;3.10;100.00;101946.94;4996496;28;20453;-51
2022/01/21 08:30:37;;;;;;;0.20;0.10;;;;;;;3.02;100.00;101940.63;4995945;28;20507;-51
2022/01/21 08:33:04;;;;;;;0.30;0.30;;;;;;;3.06;100.00;101949.47;4995668;28;20481;-51
2022/01/21 08:35:32;;;;;;;0.20;0.10;;;;;;;3.08;100.00;101951.28;4995897;28;20450;-50
2022/01/21 08:37:59;;;;;;;0.20;0.10;;;;;;;3.06;100.00;101934.59;4996212;28;20481;-51
2022/01/21 08:40:26;;;;;;;0.20;0.10;;;;;;;3.14;100.00;101919.03;4982845;28;20563;-50
2022/01/21 08:42:52;;;;;;;0.20;0.10;;;;;;;3.20;100.00;101930.59;4995828;28;20473;-50
2022/01/21 08:45:19;;;;;;;0.20;0.10;;;;;;;3.29;100.00;101932.63;4995558;28;20449;-51
2022/01/21 08:47:46;;;;;;;0.20;0.10;;;;;;;3.37;100.00;101936.31;4995732;28;20512;-51
2022/01/21 08:50:17;;;;;;;0.20;0.10;;;;;;;3.36;100.00;101937.19;4996014;28;20445;-50
2022/01/21 08:52:45;;;;;;;0.20;0.10;;;;;;;3.27;100.00;101937.81;4995791;28;20532;-51
2022/01/21 08:55:17;;;;;;;0.20;0.10;;;;;;;3.49;100.00;101936.66;4995598;28;20454;-51
2022/01/21 08:57:46;;;;;;;0.20;0.10;;;;;;;3.56;100.00;101928.09;4995630;28;20473;-51
2022/01/21 09:00:20;;;;;;;0.20;0.10;;;;;;;3.65;100.00;101934.44;4976214;28;20600;-51
2022/01/21 09:02:47;;;;;;;0.20;0.10;;;;;;;3.59;100.00;101932.53;4989790;28;20530;-51
2022/01/21 09:05:14;;;;;;;0.73;0.70;;;;;;;3.62;100.00;101934.34;4995643;28;20453;-51
2022/01/21 09:07:41;;;;;;;0.20;0.10;;;;;;;3.61;100.00;101938.72;4995700;28;20507;-51
2022/01/21 09:10:09;;;;;;;0.20;0.10;;;;;;;3.68;100.00;101951.16;4987893;28;20443;-51
2022/01/21 09:12:37;;;;;;;0.20;0.10;;;;;;;3.76;100.00;101949.66;4990627;28;20497;-51
2022/01/21 09:15:06;;;;;;;0.20;0.10;;;;;;;3.75;100.00;101952.22;4995513;28;20500;-51
2022/01/21 09:17:35;;;;;;;0.20;0.10;;;;;;;4.14;100.00;101957.63;4982115;28;20465;-51
2022/01/21 09:20:04;;;;;;;0.20;0.10;;;;;;;4.20;100.00;101951.59;4995131;28;20494;-51
2022/01/21 09:22:30;;;;;;;0.20;0.10;;;;;;;3.97;100.00;101958.91;4993011;28;20506;-51
2022/01/21 09:24:57;;;;;;;0.20;0.10;;;;;;;4.05;100.00;101958.25;4986085;28;20453;-51
2022/01/21 09:27:24;;;;;;;0.20;0.10;;;;;;;4.16;100.00;101955.91;4995522;28;20480;-51
2022/01/21 09:29:50;;;;;;;0.20;0.10;;;;;;;4.08;100.00;101966.22;4995031;28;20449;-51
2022/01/21 09:32:17;;;;;;;0.20;0.10;;;;;;;3.95;100.00;101956.25;4994784;28;20481;-51
2022/01/21 09:34:44;;;;;;;0.20;0.10;;;;;;;4.09;100.00;101956.59;4994806;28;20449;-51
2022/01/21 09:37:11;;;;;;;0.20;0.10;;;;;;;4.28;100.00;101953.56;4993964;28;20453;-51
2022/01/21 09:39:38;;;;;;;0.20;0.10;;;;;;;4.14;100.00;101955.88;4983740;28;20549;-51
2022/01/21 09:42:06;;;;;;;0.20;0.10;;;;;;;4.11;100.00;101953.19;4992788;28;20446;-51
2022/01/21 09:44:34;;;;;;;0.20;0.20;;;;;;;4.00;100.00;101962.53;4995005;28;20453;-50
2022/01/21 09:47:03;;;;;;;0.20;0.10;;;;;;;4.03;100.00;101964.34;4994652;28;20465;-51
2022/01/21 09:49:30;;;;;;;0.20;0.10;;;;;;;4.11;100.00;101958.44;4994838;28;20450;-50
2022/01/21 09:52:02;;;;;;;0.20;0.10;;;;;;;4.27;100.00;101969.34;4995267;28;20453;-50
2022/01/21 09:54:45;;;;;;;0.20;0.10;;;;;;;4.06;100.00;101974.94;4995425;28;20939;-51
2022/01/21 09:57:17;;;;;;;0.20;0.10;;;;;;;3.97;100.00;101969.44;4996435;28;20453;-51
2022/01/21 09:59:44;;;;;;;0.20;0.10;;;;;;;4.03;100.00;101975.75;4994614;28;20493;-51
2022/01/21 10:02:11;;;;;;;0.20;0.10;;;;;;;4.13;100.00;101971.63;4977261;28;20454;-51
2022/01/21 10:04:42;;;;;;;0.20;0.10;;;;;;;4.19;100.00;101971.75;4994017;28;20468;-50
2022/01/21 10:07:17;;;;;;;0.20;0.10;;;;;;;4.22;100.00;101973.56;4994643;28;20449;-51
2022/01/21 10:09:46;;;;;;;0.20;0.10;;;;;;;4.10;100.00;101975.03;4989990;28;20446;-51
2022/01/21 10:12:14;;;;;;;0.20;0.10;;;;;;;4.28;100.00;101973.75;4985909;28;20460;-51
2022/01/21 10:14:42;;;;;;;0.97;0.97;;;;;;;4.02;100.00;101978.34;4994175;28;20476;-51
2022/01/21 10:17:12;;;;;;;0.20;0.10;;;;;;;4.13;100.00;101975.16;4980972;28;20454;-51
2022/01/21 10:19:39;;;;;;;0.20;0.10;;;;;;;4.07;100.00;101974.97;4981399;28;20497;-51
2022/01/21 10:22:12;;;;;;;0.20;0.10;;;;;;;4.13;100.00;101979.53;4993543;28;20469;-51
2022/01/21 10:25:05;;;;;;;0.20;0.13;;;;;;;4.17;100.00;101973.47;4982542;28;20461;-50
2022/01/21 10:27:40;;;;;;;0.20;0.10;;;;;;;4.23;100.00;101970.97;4993785;28;21033;-50
2022/01/21 10:30:28;;;;;;;0.20;0.10;;;;;;;4.42;100.00;101970.59;4994320;28;20449;-50
2022/01/21 10:35:35;;;;;;;0.20;0.10;;;;;;;4.67;100.00;101973.78;4969520;28;20462;-54
2022/01/21 10:38:45;;;;;;;0.20;0.10;;;;;;;4.52;100.00;101976.03;4973737;28;20451;-54
2022/01/21 10:41:16;;;;;;;0.20;0.20;;;;;;;4.60;100.00;101963.97;4926897;29;20451;-54
2022/01/21 10:43:45;;;;;;;0.20;0.10;;;;;;;4.61;100.00;101971.00;4971676;28;20477;-54
2022/01/21 10:46:16;;;;;;;0.20;0.10;;;;;;;4.70;100.00;101971.22;4973382;28;20493;-54
2022/01/21 10:48:58;;;;;;;0.20;0.10;;;;;;;4.88;100.00;101961.06;4941923;28;20471;-55
2022/01/21 10:51:28;;;;;;;0.20;0.10;;;;;;;4.83;99.93;101960.09;4968832;28;20450;-54
2022/01/21 10:53:57;;;;;;;0.20;0.10;;;;;;;4.81;100.00;101964.44;4973711;28;20470;-54
2022/01/21 10:56:29;;;;;;;0.20;0.10;;;;;;;4.79;100.00;101947.69;4973430;28;20454;-54
2022/01/21 10:58:56;;;;;;;0.20;0.10;;;;;;;4.87;99.84;101958.41;4973566;28;20448;-55
2022/01/21 11:01:28;;;;;;;0.20;0.10;;;;;;;4.94;99.54;101955.97;4973362;28;20459;-51
2022/01/21 11:04:08;;;;;;;0.20;0.10;;;;;;;5.13;99.29;101967.75;4972306;28;20505;-52
2022/01/21 11:06:48;;;;;;;0.20;0.10;;;;;;;5.46;96.66;101970.16;4973522;28;20446;-54
2022/01/21 11:09:28;;;;;;;0.20;0.10;;;;;;;5.37;97.13;101966.47;4965430;28;20458;-54
2022/01/21 11:12:11;;;;;;;0.20;0.10;;;;;;;5.36;97.14;101960.31;4973657;28;20506;-54
2022/01/21 11:14:57;;;;;;;0.20;0.10;;;;;;;5.19;97.58;101957.31;4967782;28;20459;-55
2022/01/21 11:17:25;;;;;;;0.20;0.10;;;;;;;5.24;97.74;101950.41;4968833;28;20450;-51
2022/01/21 11:20:16;;;;;;;0.20;0.10;;;;;;;5.53;96.30;101948.34;4973138;28;20875;-52
2022/01/21 11:22:52;;;;;;;0.20;0.10;;;;;;;5.24;97.19;101947.78;4963031;28;21021;-52
2022/01/21 11:25:57;;;;;;;0.20;0.10;;;;;;;5.31;97.76;101938.22;4973160;28;20524;-54
2022/01/21 11:28:27;;;;;;;0.20;0.10;;;;;;;5.52;96.37;101936.00;4973465;28;20509;-54
2022/01/21 11:30:55;;;;;;;0.20;0.10;;;;;;;5.54;94.56;101939.56;4973102;28;20959;-54
2022/01/21 11:33:22;;;;;;;0.20;0.10;;;;;;;5.59;94.91;101937.88;4979818;28;20484;-54
2022/01/21 11:35:51;;;;;;;0.20;0.10;;;;;;;5.67;95.32;101937.16;5012331;28;20510;-51
2022/01/21 11:38:20;;;;;;;0.20;0.10;;;;;;;5.74;93.76;101939.91;5010860;28;21011;-52
2022/01/21 11:40:50;;;;;;;0.20;0.20;;;;;;;5.59;95.09;101929.97;5011985;28;20531;-52
2022/01/21 11:43:18;;;;;;;0.20;0.20;;;;;;;5.55;95.77;101927.28;5012158;28;20535;-52
2022/01/21 11:48:50;;;;;;;0.30;0.20;;;;;;;5.87;92.89;101925.19;5012328;28;20453;-52
2022/01/21 11:51:21;;;;;;;0.20;0.10;;;;;;;5.67;93.13;101927.50;5012219;28;20498;-52
2022/01/21 11:53:51;;;;;;;0.20;0.10;;;;;;;5.86;92.46;101931.31;5012196;28;20469;-54
2022/01/21 11:56:42;;;;;;;0.20;0.10;;;;;;;5.85;93.68;101925.16;5012177;28;20453;-54
2022/01/21 11:59:46;;;;;;;0.20;0.10;;;;;;;5.94;93.99;101922.72;5012440;28;20829;-54
2022/01/21 12:02:13;;;;;;;0.20;0.10;;;;;;;5.84;94.25;101923.38;4998384;28;20510;-54
2022/01/21 12:04:44;;;;;;;0.20;0.10;;;;;;;5.62;93.70;101930.06;5015567;28;20517;-54
2022/01/21 12:07:37;;;;;;;0.30;0.10;;;;;;;5.64;94.88;101930.97;5015793;28;20503;-54
2022/01/21 12:10:08;;;;;;;2.73;2.53;;;;;;;5.76;95.04;101929.41;4979912;28;20820;-54
2022/01/21 12:12:49;;;;;;;0.20;0.10;;;;;;;5.54;96.54;101923.75;5015561;28;20860;-54
2022/01/21 12:15:48;;;;;;;0.20;0.10;;;;;;;5.58;97.43;101924.69;5004801;28;20488;-55
2022/01/21 12:20:58;;;;;;;0.20;0.10;;;;;;;5.56;97.44;101916.75;5014353;28;20492;-55
2022/01/21 12:23:27;;;;;;;0.20;0.10;;;;;;;5.77;95.64;101908.34;5007069;28;20519;-54
2022/01/21 12:26:09;;;;;;;0.20;0.10;;;;;;;5.81;95.79;101910.16;5016187;28;20453;-54
2022/01/21 12:28:40;;;;;;;0.20;0.10;;;;;;;5.88;95.72;101908.50;5015511;28;20458;-53
2022/01/21 12:31:08;;;;;;;0.20;0.10;;;;;;;6.14;95.59;101906.31;5015207;28;20452;-51
2022/01/21 12:36:36;;;;;;;0.20;0.10;;;;;;;6.02;94.45;101912.28;5015316;28;20445;-54